Time;durP1;ratioP1;P1;durP2;ratioP2;P2;SDS_P1;SDS_P2;PMS_P1;PMS_P2;Temp;Humidity;BMP_temperature;BMP_pressure;BME280_temperature;BME280_humidity;BME280_pressure;Samples;Min_cycle;Max_cycle;Signal;HPM_P1;HPM_P2
2022/10/04 00:01:43;;;;;;;2.60;0.70;;;;;;;11.51;76.91;98736.77;25108;1315;3026877;-68
2022/10/04 00:04:25;;;;;;;2.70;0.90;;;;;;;11.34;77.43;98739.79;25082;1318;3027447;-67
2022/10/04 00:07:19;;;;;;;1.90;0.70;;;;;;;11.25;78.23;98740.81;25175;1315;3051515;-71
2022/10/04 00:09:56;;;;;;;3.30;0.60;;;;;;;11.23;78.34;98744.14;25188;1315;3052675;-70
2022/10/04 00:12:37;;;;;;;1.10;0.60;;;;;;;11.77;77.48;98745.66;25098;1316;3053772;-73
2022/10/04 00:15:22;;;;;;;1.50;0.70;;;;;;;12.32;74.41;98745.11;25155;1315;3058898;-71
2022/10/04 00:18:10;;;;;;;2.50;1.00;;;;;;;12.11;75.21;98744.45;25143;1315;3050090;-73
2022/10/04 00:20:54;;;;;;;1.70;0.70;;;;;;;11.80;76.44;98750.11;25123;1315;3055518;-71
2022/10/04 00:23:23;;;;;;;5.10;1.10;;;;;;;11.60;77.33;98757.81;25152;1315;3050459;-72
2022/10/04 00:26:09;;;;;;;4.70;1.40;;;;;;;11.37;78.35;98760.26;25172;1315;3027426;-69
2022/10/04 00:28:44;;;;;;;4.00;1.50;;;;;;;11.25;79.16;98760.62;25132;1318;3053665;-67
2022/10/04 00:31:23;;;;;;;1.90;0.90;;;;;;;11.07;80.11;98764.34;25164;1316;3057307;-70
2022/10/04 00:34:07;;;;;;;1.60;1.00;;;;;;;11.63;78.61;98759.17;25174;1314;3069312;-67
2022/10/04 00:36:43;;;;;;;1.90;0.90;;;;;;;12.01;76.59;98753.84;25159;1315;3051874;-67
2022/10/04 00:39:14;;;;;;;3.60;1.30;;;;;;;11.96;76.34;98757.55;25126;1316;3052894;-71
2022/10/04 00:41:46;;;;;;;2.30;1.00;;;;;;;11.74;76.94;98760.64;25137;1315;3026204;-69
2022/10/04 00:44:27;;;;;;;3.20;1.50;;;;;;;11.54;77.83;98764.89;25154;1315;3028335;-69
2022/10/04 00:46:56;;;;;;;5.20;1.50;;;;;;;11.36;78.59;98764.36;25193;1316;3049450;-72
2022/10/04 00:49:28;;;;;;;3.20;1.40;;;;;;;11.14;79.38;98765.61;25068;1318;3026724;-71
2022/10/04 00:52:25;;;;;;;2.30;0.90;;;;;;;11.10;79.88;98766.46;25105;1316;3056331;-69
2022/10/04 00:54:56;;;;;;;3.10;1.00;;;;;;;11.70;78.22;98760.20;25174;1316;3051603;-68
2022/10/04 00:57:39;;;;;;;2.30;1.00;;;;;;;11.93;76.75;98755.50;25150;1316;3026136;-69
2022/10/04 01:00:16;;;;;;;3.10;0.80;;;;;;;11.81;77.07;98759.19;25111;1315;3054303;-70
2022/10/04 01:02:52;;;;;;;1.60;0.80;;;;;;;11.58;77.63;98770.44;25106;1315;3069129;-69
2022/10/04 01:05:29;;;;;;;1.80;0.90;;;;;;;11.30;78.95;98771.80;25106;1315;3049694;-67
2022/10/04 01:08:10;;;;;;;1.50;0.70;;;;;;;11.08;79.82;98776.60;25149;1315;3054983;-67
2022/10/04 01:10:57;;;;;;;2.60;0.80;;;;;;;10.91;80.75;98776.08;25091;1316;3056405;-67
2022/10/04 01:13:49;;;;;;;1.40;0.80;;;;;;;10.75;81.66;98781.05;25193;1316;3056175;-72
2022/10/04 01:16:21;;;;;;;2.10;0.60;;;;;;;11.33;79.87;98776.86;25273;1315;3050140;-69
2022/10/04 01:18:50;;;;;;;1.60;0.70;;;;;;;11.75;78.26;98775.66;25202;1316;3027248;-72
2022/10/04 01:21:22;;;;;;;0.80;0.50;;;;;;;11.63;77.81;98774.98;25091;1316;3026963;-67
2022/10/04 01:23:56;;;;;;;2.00;0.80;;;;;;;11.69;77.47;98766.25;25184;1315;3049413;-66
2022/10/04 01:26:33;;;;;;;2.20;1.20;;;;;;;11.41;77.85;98770.83;25136;1316;3052288;-71
2022/10/04 01:29:26;;;;;;;2.40;1.40;;;;;;;11.04;79.70;98773.34;25108;1315;3053196;-66
2022/10/04 01:31:57;;;;;;;3.70;1.20;;;;;;;11.03;79.18;98769.55;25181;1315;3068884;-66
2022/10/04 01:34:27;;;;;;;2.70;1.10;;;;;;;10.80;80.24;98774.20;25293;1316;3026245;-72
2022/10/04 01:36:58;;;;;;;2.80;1.30;;;;;;;11.28;79.58;98775.26;25201;1315;3026934;-71
2022/10/04 01:39:27;;;;;;;1.90;0.80;;;;;;;11.85;77.16;98771.20;25215;1315;3027682;-69
2022/10/04 01:41:59;;;;;;;2.60;1.00;;;;;;;11.97;76.07;98768.66;25204;1316;3026472;-70
2022/10/04 01:44:52;;;;;;;1.00;0.70;;;;;;;11.59;76.70;98774.58;25135;1318;3052805;-69
2022/10/04 01:47:37;;;;;;;1.20;0.90;;;;;;;11.37;77.82;98774.12;25111;1316;3055559;-69
2022/10/04 01:50:10;;;;;;;3.10;0.80;;;;;;;11.25;77.59;98774.48;25257;1315;3057275;-70
2022/10/04 01:53:05;;;;;;;1.40;0.70;;;;;;;11.02;78.66;98776.64;25130;1315;3049569;-72
2022/10/04 01:55:35;;;;;;;0.50;0.50;;;;;;;10.91;79.54;98779.93;25202;1315;3053615;-70
2022/10/04 01:58:13;;;;;;;1.20;0.40;;;;;;;11.62;78.01;98779.38;25188;1315;3026611;-70
2022/10/04 02:00:56;;;;;;;1.00;0.40;;;;;;;12.04;75.94;98778.88;25096;1318;3071742;-69
2022/10/04 02:03:27;;;;;;;1.30;0.50;;;;;;;11.85;75.68;98773.95;25247;1315;3050129;-71
2022/10/04 02:05:58;;;;;;;1.40;0.80;;;;;;;11.54;76.72;98780.70;25227;1315;3026803;-71
2022/10/04 02:08:29;;;;;;;2.10;0.70;;;;;;;11.15;78.15;98780.45;25094;1318;3026587;-69
2022/10/04 02:10:59;;;;;;;0.60;0.50;;;;;;;11.09;78.14;98780.21;25251;1315;3027641;-70
2022/10/04 02:13:35;;;;;;;0.80;0.50;;;;;;;10.91;78.41;98778.13;25232;1315;3029137;-72
2022/10/04 02:16:08;;;;;;;1.40;0.60;;;;;;;10.85;78.63;98779.14;25210;1315;3052662;-70
2022/10/04 02:18:42;;;;;;;0.50;0.40;;;;;;;11.35;77.98;98776.53;25180;1316;3051254;-70
2022/10/04 02:21:11;;;;;;;3.90;0.50;;;;;;;11.82;76.19;98778.77;25136;1315;3026831;-66
2022/10/04 02:23:40;;;;;;;0.70;0.40;;;;;;;11.88;75.15;98767.27;25056;1318;3027591;-68
2022/10/04 02:26:10;;;;;;;0.80;0.60;;;;;;;11.55;75.84;98772.02;25066;1316;3026351;-69
2022/10/04 02:28:39;;;;;;;1.10;0.50;;;;;;;11.31;76.60;98774.00;25104;1315;3071223;-68
2022/10/04 02:33:57;;;;;;;0.70;0.60;;;;;;;10.93;77.11;98772.77;25172;1315;3054121;-67
2022/10/04 02:36:27;;;;;;;1.10;0.50;;;;;;;10.77;77.77;98773.08;25120;1316;3026061;-67
2022/10/04 02:39:08;;;;;;;0.60;0.50;;;;;;;10.57;78.92;98774.16;25157;1318;3028396;-69
2022/10/04 02:41:42;;;;;;;2.00;0.60;;;;;;;11.06;78.30;98775.29;25157;1316;3054672;-71
2022/10/04 02:44:20;;;;;;;0.50;0.40;;;;;;;11.53;76.34;98779.40;25119;1316;3052842;-69
2022/10/04 02:46:52;;;;;;;0.90;0.60;;;;;;;11.42;76.02;98784.63;25075;1316;3059273;-69
2022/10/04 02:49:45;;;;;;;1.00;0.80;;;;;;;11.25;76.49;98786.17;25129;1315;3028278;-67
2022/10/04 02:52:15;;;;;;;1.40;0.80;;;;;;;10.90;77.83;98788.89;25159;1316;3053541;-65
2022/10/04 02:54:48;;;;;;;1.60;1.10;;;;;;;10.67;78.82;98788.67;25213;1316;3026304;-67
2022/10/04 02:57:19;;;;;;;2.10;0.90;;;;;;;10.48;79.58;98793.67;25167;1316;3026802;-66
2022/10/04 02:59:48;;;;;;;1.30;0.50;;;;;;;10.36;80.42;98796.61;25160;1316;3026357;-65
2022/10/04 03:02:23;;;;;;;1.10;0.60;;;;;;;10.80;79.18;98798.73;25156;1318;3026497;-70
2022/10/04 03:04:53;;;;;;;2.60;0.70;;;;;;;11.24;77.12;98797.13;25189;1315;3051859;-68
2022/10/04 03:07:22;;;;;;;3.40;1.00;;;;;;;11.31;76.50;98799.27;25213;1315;3026624;-70
2022/10/04 03:09:51;;;;;;;3.60;1.20;;;;;;;11.06;76.91;98800.90;25091;1318;3028825;-71
2022/10/04 03:12:21;;;;;;;4.10;1.20;;;;;;;10.79;77.91;98804.27;25116;1316;3051561;-70
2022/10/04 03:14:53;;;;;;;2.70;1.00;;;;;;;10.64;77.90;98802.82;25103;1315;3028771;-69
2022/10/04 03:17:23;;;;;;;1.10;0.70;;;;;;;10.43;78.49;98808.56;25144;1318;3026745;-73
2022/10/04 03:19:53;;;;;;;4.00;0.90;;;;;;;10.25;79.39;98808.70;25131;1315;3027333;-67
2022/10/04 03:22:22;;;;;;;1.20;0.50;;;;;;;10.13;79.81;98816.38;25167;1316;3026788;-70
2022/10/04 03:24:52;;;;;;;1.50;0.60;;;;;;;10.62;78.65;98819.11;25149;1316;3051926;-73
2022/10/04 03:27:28;;;;;;;1.70;0.70;;;;;;;11.01;76.73;98824.39;25209;1316;3026770;-72
2022/10/04 03:30:00;;;;;;;1.70;0.90;;;;;;;10.83;76.81;98824.62;25276;1314;3051836;-73
2022/10/04 03:32:30;;;;;;;3.70;1.00;;;;;;;10.70;77.37;98823.30;25183;1316;3026955;-72
2022/10/04 03:35:02;;;;;;;2.00;1.10;;;;;;;10.49;77.94;98828.83;25207;1316;3026730;-72
2022/10/04 03:37:34;;;;;;;1.90;1.00;;;;;;;10.35;78.50;98833.42;25149;1315;3026929;-67
2022/10/04 03:40:03;;;;;;;2.70;1.40;;;;;;;10.11;79.37;98839.77;25155;1315;3026154;-69
2022/10/04 03:42:33;;;;;;;2.40;1.30;;;;;;;9.97;79.82;98838.63;25053;1318;3027291;-70
2022/10/04 03:45:07;;;;;;;5.50;1.30;;;;;;;9.87;80.23;98839.11;25173;1316;3026520;-69
2022/10/04 03:47:38;;;;;;;4.60;2.10;;;;;;;10.31;79.26;98836.15;25212;1315;3052919;-70
2022/10/04 03:50:12;;;;;;;4.10;1.20;;;;;;;11.08;77.07;98835.67;25149;1316;3030483;-73
2022/10/04 03:52:53;;;;;;;2.80;1.70;;;;;;;11.12;75.45;98840.45;25156;1315;3069146;-72
2022/10/04 03:55:24;;;;;;;4.50;1.60;;;;;;;10.77;76.02;98844.36;25130;1315;3049143;-69
2022/10/04 03:57:53;;;;;;;2.80;1.40;;;;;;;10.60;76.68;98845.22;25136;1316;3026428;-71
2022/10/04 04:00:22;;;;;;;3.10;1.60;;;;;;;10.38;77.35;98845.30;25171;1315;3026326;-68
2022/10/04 04:02:57;;;;;;;3.80;1.20;;;;;;;10.19;77.98;98843.46;25039;1316;3027035;-70
2022/10/04 04:05:30;;;;;;;3.80;1.50;;;;;;;10.08;78.28;98849.42;25157;1315;3054604;-70
2022/10/04 04:08:09;;;;;;;2.80;1.00;;;;;;;10.00;78.96;98851.79;25205;1316;3026237;-69
2022/10/04 04:10:41;;;;;;;2.40;1.00;;;;;;;10.49;77.64;98854.38;25192;1315;3058571;-71
2022/10/04 04:13:10;;;;;;;2.20;1.40;;;;;;;11.03;75.87;98856.47;25207;1316;3027193;-70
2022/10/04 04:15:42;;;;;;;3.50;2.10;;;;;;;11.11;74.89;98863.27;25215;1315;3027671;-68
2022/10/04 04:18:22;;;;;;;2.90;1.80;;;;;;;10.85;75.41;98864.59;25112;1316;3027386;-67
2022/10/04 04:20:52;;;;;;;5.00;2.20;;;;;;;10.71;75.64;98865.94;25148;1315;3067885;-68
2022/10/04 04:23:27;;;;;;;6.50;2.40;;;;;;;10.66;75.48;98864.90;25122;1316;3026647;-68
2022/10/04 04:26:00;;;;;;;4.50;2.30;;;;;;;10.45;76.30;98869.52;25272;1315;3054527;-68
2022/10/04 04:28:31;;;;;;;4.50;1.90;;;;;;;10.38;76.29;98863.35;25191;1315;3028586;-62
2022/10/04 04:31:20;;;;;;;1.90;0.80;;;;;;;10.31;76.63;98867.33;25040;1316;3027519;-71
2022/10/04 04:34:02;;;;;;;2.80;1.30;;;;;;;10.88;75.76;98871.40;25157;1316;3049601;-68
2022/10/04 04:36:39;;;;;;;5.20;1.70;;;;;;;11.31;74.09;98874.27;25191;1316;3052777;-67
2022/10/04 04:39:33;;;;;;;3.90;2.10;;;;;;;11.31;74.23;98873.25;25118;1315;3054368;-67
2022/10/04 04:42:10;;;;;;;3.60;1.60;;;;;;;11.16;75.17;98872.19;25203;1315;3070959;-72
2022/10/04 04:44:53;;;;;;;6.20;2.00;;;;;;;10.96;74.67;98875.40;25157;1316;3051469;-69
2022/10/04 04:47:51;;;;;;;4.50;1.90;;;;;;;10.84;74.98;98883.59;25133;1315;3053310;-73
2022/10/04 04:50:36;;;;;;;3.70;1.80;;;;;;;10.71;75.61;98883.67;25183;1315;3053090;-74
2022/10/04 04:53:16;;;;;;;3.20;1.80;;;;;;;10.61;76.09;98886.77;25149;1318;3058969;-70
2022/10/04 04:55:48;;;;;;;1.70;1.30;;;;;;;10.54;76.61;98896.23;25199;1316;3049829;-72
2022/10/04 04:58:20;;;;;;;2.00;1.10;;;;;;;11.14;75.17;98894.99;25143;1318;3026894;-69
2022/10/04 05:01:00;;;;;;;3.80;1.60;;;;;;;11.62;73.14;98901.48;25189;1316;3026792;-70
2022/10/04 05:03:31;;;;;;;2.90;1.80;;;;;;;11.66;72.93;98902.27;25105;1316;3070078;-75
2022/10/04 05:06:03;;;;;;;3.30;1.60;;;;;;;11.54;73.19;98904.20;25192;1314;3026376;-72
2022/10/04 05:08:37;;;;;;;4.40;1.90;;;;;;;11.28;73.95;98909.90;25165;1315;3051527;-71
2022/10/04 05:11:07;;;;;;;3.20;1.50;;;;;;;11.24;73.89;98909.14;25194;1315;3026180;-70
2022/10/04 05:13:50;;;;;;;3.20;1.50;;;;;;;11.15;74.14;98910.83;25197;1315;3027485;-71
2022/10/04 05:16:26;;;;;;;2.20;1.40;;;;;;;11.06;74.43;98913.27;25129;1317;3051085;-70
2022/10/04 05:19:00;;;;;;;3.50;1.90;;;;;;;10.88;75.11;98921.51;25243;1315;3053655;-67
2022/10/04 05:21:30;;;;;;;1.90;0.90;;;;;;;10.71;75.93;98925.33;25080;1319;3051361;-68
2022/10/04 05:24:16;;;;;;;1.60;1.00;;;;;;;11.27;74.70;98923.13;25138;1318;3028945;-72
2022/10/04 05:26:49;;;;;;;3.80;1.30;;;;;;;11.77;72.85;98929.70;25128;1316;3050020;-69
2022/10/04 05:29:20;;;;;;;5.20;1.70;;;;;;;11.74;72.58;98937.27;25212;1316;3026867;-67
2022/10/04 05:31:57;;;;;;;2.40;1.60;;;;;;;11.47;73.30;98938.17;25141;1315;3026713;-71
2022/10/04 05:34:33;;;;;;;3.50;1.50;;;;;;;11.42;73.08;98935.07;25148;1318;3057014;-73
2022/10/04 05:37:08;;;;;;;2.10;1.50;;;;;;;11.23;73.71;98939.89;25265;1315;3049873;-73
2022/10/04 05:39:43;;;;;;;3.20;1.80;;;;;;;11.02;74.75;98947.16;25199;1315;3053509;-70
2022/10/04 05:42:33;;;;;;;3.30;1.90;;;;;;;11.07;74.08;98945.96;25122;1318;3052516;-74
2022/10/04 05:45:11;;;;;;;2.70;1.80;;;;;;;11.03;74.32;98938.20;25166;1316;3068710;-66
2022/10/04 05:47:41;;;;;;;3.70;1.40;;;;;;;11.04;73.88;98945.48;25208;1319;3048942;-74
2022/10/04 05:50:16;;;;;;;2.60;0.90;;;;;;;11.04;74.63;98945.51;25104;1316;3026485;-68
2022/10/04 05:52:46;;;;;;;1.60;1.00;;;;;;;11.77;72.48;98953.91;25106;1318;3054226;-68
2022/10/04 05:55:40;;;;;;;2.50;1.60;;;;;;;12.04;71.04;98957.40;25155;1316;3026647;-74
2022/10/04 05:58:17;;;;;;;1.70;1.30;;;;;;;12.03;70.98;98952.71;25181;1315;3051080;-68
2022/10/04 06:01:11;;;;;;;2.80;1.70;;;;;;;11.89;71.45;98952.34;25118;1318;3052283;-66
2022/10/04 06:03:50;;;;;;;7.80;1.50;;;;;;;11.67;71.83;98957.42;25203;1315;3051978;-65
2022/10/04 06:06:23;;;;;;;2.20;1.10;;;;;;;11.69;71.53;98961.52;25180;1315;3069900;-68
2022/10/04 06:09:03;;;;;;;3.90;1.60;;;;;;;11.78;70.89;98968.39;25187;1316;3029179;-72
2022/10/04 06:11:39;;;;;;;5.80;1.70;;;;;;;11.50;72.19;98970.45;25164;1319;3053341;-65
2022/10/04 06:14:24;;;;;;;7.10;2.00;;;;;;;11.55;71.97;98972.15;25059;1319;3053565;-69
2022/10/04 06:17:17;;;;;;;;;;;;;;;11.43;73.08;98973.06;25145;1315;3056678;-70
2022/10/04 06:19:57;;;;;;;6.00;1.20;;;;;;;11.39;72.41;98977.15;25194;1316;3054447;-67
2022/10/04 06:22:26;;;;;;;2.80;1.50;;;;;;;11.46;71.89;98976.30;25174;1316;3051599;-69
2022/10/04 06:25:06;;;;;;;1.10;0.70;;;;;;;11.51;72.15;98981.57;25155;1314;3026668;-68
2022/10/04 06:27:48;;;;;;;1.60;1.00;;;;;;;11.97;71.24;98980.13;25140;1315;3069624;-74
2022/10/04 06:30:17;;;;;;;1.90;1.10;;;;;;;12.50;69.26;98976.91;25199;1318;3052443;-74
2022/10/04 06:33:01;;;;;;;4.70;1.60;;;;;;;12.46;69.14;98983.73;25169;1316;3027661;-66
2022/10/04 06:35:51;;;;;;;3.60;1.40;;;;;;;12.29;69.03;98980.98;25176;1316;3051067;-66
2022/10/04 06:38:26;;;;;;;5.40;1.80;;;;;;;12.28;69.72;98979.70;25105;1318;3056744;-74
2022/10/04 06:41:11;;;;;;;3.00;1.60;;;;;;;12.20;69.71;98979.35;25125;1315;3050924;-68
2022/10/04 06:43:56;;;;;;;2.80;1.30;;;;;;;12.11;70.20;98978.76;25474;1315;3056391;-70
2022/10/04 06:46:30;;;;;;;2.80;1.80;;;;;;;12.08;70.46;98979.71;25408;1315;3052981;-68
2022/10/04 06:49:02;;;;;;;3.60;1.70;;;;;;;12.10;70.27;98985.02;25174;1315;3069710;-70
2022/10/04 06:51:54;;;;;;;4.50;1.90;;;;;;;12.09;70.29;98986.48;25168;1316;3026207;-70
2022/10/04 06:54:48;;;;;;;2.70;1.40;;;;;;;12.07;70.82;98986.27;25226;1315;3052170;-67
2022/10/04 06:57:42;;;;;;;5.00;1.30;;;;;;;12.19;70.72;98988.89;25149;1315;3052531;-68
2022/10/04 07:00:26;;;;;;;3.30;1.70;;;;;;;12.28;69.78;98990.02;25127;1315;3057042;-67
2022/10/04 07:02:58;;;;;;;2.20;1.50;;;;;;;12.21;69.78;98991.02;25078;1316;3053761;-69
2022/10/04 07:05:42;;;;;;;2.20;1.30;;;;;;;12.31;69.44;98991.92;25201;1316;3026107;-71
2022/10/04 07:08:32;;;;;;;2.00;1.50;;;;;;;12.37;69.15;98992.45;25182;1315;3051350;-74
2022/10/04 07:11:13;;;;;;;3.00;1.70;;;;;;;12.46;69.08;98991.64;25189;1316;3071328;-74
2022/10/04 07:13:48;;;;;;;2.40;1.30;;;;;;;12.54;68.88;98994.41;25173;1315;3049669;-71
2022/10/04 07:16:36;;;;;;;3.30;1.70;;;;;;;12.55;68.57;98995.73;25213;1315;3051794;-68
2022/10/04 07:19:18;;;;;;;3.00;1.30;;;;;;;12.66;68.54;99006.42;25190;1315;3054978;-71
2022/10/04 07:21:55;;;;;;;4.60;1.70;;;;;;;12.70;68.15;99013.02;25146;1316;3059321;-73
2022/10/04 07:24:30;;;;;;;2.70;1.90;;;;;;;12.92;67.60;99015.70;25261;1316;3049586;-74
2022/10/04 07:26:59;;;;;;;4.40;1.40;;;;;;;13.13;66.98;99016.88;25168;1314;3053119;-69
2022/10/04 07:29:31;;;;;;;2.70;1.50;;;;;;;13.07;67.23;99017.23;25181;1318;3026863;-74
2022/10/04 07:32:37;;;;;;;3.10;1.40;;;;;;;13.13;66.86;99021.31;25123;1316;3052753;-69
2022/10/04 07:35:11;;;;;;;3.40;1.80;;;;;;;13.14;66.71;99012.27;24985;1323;3055546;-71
2022/10/04 07:37:51;;;;;;;5.90;1.70;;;;;;;13.15;66.97;99005.14;25134;1315;3054640;-74
2022/10/04 07:40:34;;;;;;;2.50;1.40;;;;;;;13.09;66.52;99009.83;25097;1316;3069276;-72
2022/10/04 07:43:06;;;;;;;2.70;1.50;;;;;;;13.04;66.65;99002.85;25171;1316;3050554;-72
2022/10/04 07:45:38;;;;;;;2.70;1.30;;;;;;;13.12;66.29;99000.61;25118;1318;3028274;-71
2022/10/04 07:48:11;;;;;;;;;;;;;;;13.29;65.98;99001.60;25175;1315;3052417;-71
2022/10/04 07:50:46;;;;;;;3.30;1.40;;;;;;;13.35;65.37;99015.35;25225;1316;3026402;-74
2022/10/04 07:53:19;;;;;;;1.50;1.20;;;;;;;13.53;64.64;99009.69;25243;1315;3052592;-69
2022/10/04 07:55:56;;;;;;;1.90;1.10;;;;;;;13.60;64.05;98999.35;25187;1316;3026653;-69
2022/10/04 07:59:17;;;;;;;2.20;1.10;;;;;;;13.51;62.92;99006.02;25193;1315;3050864;-74
2022/10/04 08:01:54;;;;;;;3.30;1.10;;;;;;;13.26;63.17;99015.31;25187;1315;3070532;-72
2022/10/04 08:04:58;;;;;;;2.10;1.10;;;;;;;12.96;63.75;99018.36;25200;1316;3051836;-68
2022/10/04 08:07:59;;;;;;;3.50;1.40;;;;;;;13.20;64.31;99016.73;25269;1316;3053376;-69
2022/10/04 08:10:30;;;;;;;3.80;1.10;;;;;;;13.56;63.35;99007.58;25261;1316;3054198;-73
2022/10/04 08:13:09;;;;;;;3.00;1.20;;;;;;;13.49;62.85;99024.86;25166;1316;3026760;-72
2022/10/04 08:15:42;;;;;;;3.10;1.10;;;;;;;13.48;62.96;99018.22;25160;1315;3050650;-67
2022/10/04 08:18:28;;;;;;;3.00;1.40;;;;;;;13.45;62.56;99024.40;25139;1316;3026567;-71
2022/10/04 08:20:58;;;;;;;2.00;1.00;;;;;;;13.54;62.84;99019.33;25212;1316;3057062;-69
2022/10/04 08:23:43;;;;;;;2.20;0.90;;;;;;;13.43;62.02;99033.98;25182;1318;3026654;-77
2022/10/04 08:26:46;;;;;;;2.40;1.20;;;;;;;13.38;61.97;99025.55;25183;1315;3049392;-71
2022/10/04 08:29:41;;;;;;;;;;;;;;;13.45;61.41;99034.66;25263;1316;3051903;-77
2022/10/04 08:32:28;;;;;;;1.60;0.90;;;;;;;13.46;61.34;99022.98;25219;1315;3054985;-68
2022/10/04 08:35:19;;;;;;;1.60;0.80;;;;;;;13.74;60.28;99019.86;25182;1315;3055631;-75
2022/10/04 08:38:07;;;;;;;0.70;0.60;;;;;;;13.86;58.70;99034.36;25196;1315;3050310;-70
2022/10/04 08:40:58;;;;;;;0.80;0.70;;;;;;;13.92;56.91;99036.90;25226;1316;3051688;-69
2022/10/04 08:44:05;;;;;;;1.70;0.60;;;;;;;13.94;56.39;99025.24;25130;1316;3051508;-75
2022/10/04 08:47:09;;;;;;;2.70;0.70;;;;;;;14.03;55.81;99033.67;25216;1315;3068908;-73
2022/10/04 08:49:56;;;;;;;2.00;0.60;;;;;;;14.01;55.74;99035.58;25165;1315;3048308;-73
2022/10/04 08:52:36;;;;;;;1.00;0.50;;;;;;;14.08;55.71;99039.30;25075;1318;3052558;-74
2022/10/04 08:55:19;;;;;;;1.60;0.80;;;;;;;14.02;55.52;99039.97;25222;1315;3053102;-70
2022/10/04 08:58:00;;;;;;;1.90;0.90;;;;;;;14.07;55.99;99033.92;25215;1315;3058458;-71
2022/10/04 09:00:50;;;;;;;1.70;0.70;;;;;;;14.23;55.39;99055.00;25235;1316;3050153;-72
2022/10/04 09:03:47;;;;;;;1.10;0.80;;;;;;;14.16;54.93;99044.95;25183;1316;3053459;-70
2022/10/04 09:06:26;;;;;;;0.80;0.50;;;;;;;14.01;54.44;99050.04;25184;1318;3053577;-70
2022/10/04 09:09:33;;;;;;;1.00;0.60;;;;;;;13.95;55.19;99049.00;25088;1318;3069595;-72
2022/10/04 09:12:17;;;;;;;2.20;0.60;;;;;;;14.08;55.39;99041.88;25195;1315;3050281;-74
2022/10/04 09:15:10;;;;;;;1.60;0.80;;;;;;;14.36;53.69;99049.70;25290;1315;3054811;-70
2022/10/04 09:18:01;;;;;;;1.20;0.60;;;;;;;14.34;51.53;99073.60;25267;1315;3053569;-73
2022/10/04 09:20:50;;;;;;;1.30;0.50;;;;;;;14.14;51.74;99050.96;25349;1315;3058379;-73
2022/10/04 09:23:28;;;;;;;1.30;0.50;;;;;;;14.25;52.32;99059.19;25261;1315;3052518;-72
2022/10/04 09:26:06;;;;;;;1.00;0.70;;;;;;;14.50;51.57;99062.77;25200;1315;3053284;-74
2022/10/04 09:29:09;;;;;;;0.70;0.50;;;;;;;14.32;50.49;99065.71;25261;1315;3053240;-74
2022/10/04 09:31:56;;;;;;;1.30;0.80;;;;;;;14.23;51.41;99068.02;25173;1316;3071196;-72
2022/10/04 09:34:43;;;;;;;1.20;0.70;;;;;;;14.39;51.37;99076.77;25187;1316;3051497;-70
2022/10/04 09:37:37;;;;;;;1.20;0.70;;;;;;;14.56;50.93;99067.95;25301;1315;3053352;-69
2022/10/04 09:40:28;;;;;;;0.70;0.50;;;;;;;14.62;50.48;99075.17;25207;1316;3053206;-72
2022/10/04 09:43:13;;;;;;;1.00;0.50;;;;;;;14.73;50.40;99075.17;25235;1315;3060598;-73
2022/10/04 09:45:54;;;;;;;2.00;0.80;;;;;;;14.79;49.69;99078.41;25298;1316;3052872;-72
2022/10/04 09:49:00;;;;;;;1.00;0.60;;;;;;;14.98;49.91;99079.05;25309;1315;3052719;-74
2022/10/04 09:52:15;;;;;;;1.60;0.80;;;;;;;15.06;49.22;99080.83;25200;1316;3051871;-72
2022/10/04 09:54:49;;;;;;;0.60;0.60;;;;;;;14.87;49.38;99090.91;25209;1316;3069776;-71
2022/10/04 09:57:42;;;;;;;0.90;0.50;;;;;;;14.86;49.91;99084.66;25259;1315;3050590;-72
2022/10/04 10:00:17;;;;;;;1.00;0.60;;;;;;;15.06;49.97;99085.30;25289;1315;3052503;-74
2022/10/04 10:02:57;;;;;;;2.00;0.50;;;;;;;14.94;49.30;99108.19;25257;1316;3053300;-70
2022/10/04 10:05:54;;;;;;;0.90;0.50;;;;;;;14.91;48.87;99098.84;25179;1315;3058472;-71
2022/10/04 10:08:26;;;;;;;0.60;0.50;;;;;;;14.87;49.34;99100.77;25183;1315;3049856;-74
2022/10/04 10:14:22;;;;;;;1.40;0.90;;;;;;;14.96;48.89;99107.98;25276;1315;3052205;-73
2022/10/04 10:16:53;;;;;;;1.20;0.70;;;;;;;15.05;48.88;99096.33;25183;1315;3068917;-70
2022/10/04 10:19:34;;;;;;;1.00;0.60;;;;;;;15.18;49.20;99098.06;25157;1315;3026246;-73
2022/10/04 10:22:12;;;;;;;1.10;0.50;;;;;;;15.26;47.22;99106.65;25206;1316;3052254;-71
2022/10/04 10:25:00;;;;;;;1.40;0.60;;;;;;;15.44;46.94;99108.27;25228;1316;3054681;-68
2022/10/04 10:27:36;;;;;;;2.60;0.50;;;;;;;15.45;47.15;99107.19;25146;1315;3058030;-70
2022/10/04 10:30:31;;;;;;;1.40;0.70;;;;;;;15.39;46.70;99110.53;25222;1315;3049679;-76
2022/10/04 10:33:19;;;;;;;1.10;0.50;;;;;;;15.56;46.47;99112.71;25218;1316;3052773;-75
2022/10/04 10:36:10;;;;;;;2.90;0.30;;;;;;;15.82;45.83;99118.64;25298;1316;3051764;-70
2022/10/04 10:38:57;;;;;;;1.00;0.60;;;;;;;15.91;46.14;99111.66;25152;1315;3069420;-74
2022/10/04 10:41:30;;;;;;;1.10;0.60;;;;;;;16.09;46.20;99117.30;25321;1315;3052352;-70
2022/10/04 10:44:25;;;;;;;0.90;0.60;;;;;;;16.06;46.24;99117.77;25332;1315;3027521;-71
2022/10/04 10:47:04;;;;;;;0.70;0.50;;;;;;;15.91;46.01;99118.96;25176;1315;3052654;-74
2022/10/04 10:49:39;;;;;;;1.80;0.70;;;;;;;15.62;46.42;99129.18;25139;1317;3056646;-70
2022/10/04 10:52:30;;;;;;;2.70;0.50;;;;;;;15.30;46.52;99124.84;25242;1315;3050318;-73
2022/10/04 10:55:28;;;;;;;1.60;0.60;;;;;;;15.11;47.33;99117.86;25172;1315;3055401;-69
2022/10/04 10:58:06;;;;;;;1.30;0.60;;;;;;;15.02;47.32;99134.48;24417;1318;4205324;-72
2022/10/04 11:00:45;;;;;;;2.00;0.70;;;;;;;14.85;47.72;99140.61;25307;1316;3069538;-75
2022/10/04 11:03:33;;;;;;;3.70;0.60;;;;;;;14.76;48.00;99132.58;25855;1315;3049841;-70
2022/10/04 11:06:10;;;;;;;1.10;0.50;;;;;;;14.91;47.69;99141.35;25764;1315;3051735;-72
2022/10/04 11:09:19;;;;;;;1.60;0.90;;;;;;;14.94;47.34;99143.57;25160;1318;3053112;-69
2022/10/04 11:12:25;;;;;;;2.90;0.60;;;;;;;14.95;47.16;99131.16;25509;1315;3056040;-69
2022/10/04 11:15:20;;;;;;;0.80;0.70;;;;;;;14.85;47.43;99141.36;25362;1315;3049828;-70
2022/10/04 11:18:08;;;;;;;1.00;0.60;;;;;;;14.85;47.96;99137.16;25216;1315;3053173;-75
2022/10/04 11:20:58;;;;;;;1.10;0.60;;;;;;;14.79;47.62;99149.81;25233;1315;3051948;-71
2022/10/04 11:23:38;;;;;;;1.20;0.60;;;;;;;14.69;47.47;99136.48;25132;1315;3069693;-71
2022/10/04 11:26:26;;;;;;;1.80;0.70;;;;;;;14.82;46.97;99139.84;25140;1315;3049527;-75
2022/10/04 11:29:34;;;;;;;2.20;0.60;;;;;;;14.96;46.32;99146.09;25139;1315;3054806;-75
2022/10/04 11:32:19;;;;;;;0.60;0.60;;;;;;;14.92;46.67;99157.52;24969;1324;3052549;-72
2022/10/04 11:35:16;;;;;;;2.40;0.70;;;;;;;14.75;47.60;99157.16;25132;1316;3056792;-71
2022/10/04 11:38:07;;;;;;;1.20;0.60;;;;;;;14.76;47.77;99167.46;25148;1315;3050631;-71
2022/10/04 11:41:00;;;;;;;1.30;0.70;;;;;;;14.72;47.83;99163.90;25222;1315;3056364;-70
2022/10/04 11:43:59;;;;;;;2.80;1.00;;;;;;;14.61;48.45;99173.79;25268;1315;3051907;-77
2022/10/04 11:46:42;;;;;;;1.50;0.60;;;;;;;14.57;47.60;99193.33;25207;1318;3069232;-74
2022/10/04 11:49:35;;;;;;;1.40;0.40;;;;;;;14.59;47.16;99182.09;25183;1315;3049654;-73
2022/10/04 11:52:21;;;;;;;1.60;0.60;;;;;;;14.43;47.52;99188.83;25190;1317;3052361;-72
2022/10/04 11:54:56;;;;;;;0.60;0.40;;;;;;;14.48;47.97;99190.16;25187;1315;3052215;-68
2022/10/04 11:57:57;;;;;;;1.60;0.60;;;;;;;14.56;47.48;99208.39;25109;1315;3057664;-71
2022/10/04 12:00:52;;;;;;;0.80;0.60;;;;;;;14.55;47.87;99194.35;25177;1315;3052977;-73
2022/10/04 12:03:36;;;;;;;0.70;0.50;;;;;;;14.64;48.17;99203.92;25067;1315;3053795;-69
2022/10/04 12:06:21;;;;;;;4.70;0.70;;;;;;;14.82;47.89;99199.58;25254;1315;3053870;-73
2022/10/04 12:09:05;;;;;;;2.60;1.40;;;;;;;14.84;47.93;99203.35;25210;1315;3071344;-72
2022/10/04 12:15:07;;;;;;;1.80;0.60;;;;;;;14.85;48.39;99212.63;25166;1315;3052842;-71
2022/10/04 12:17:40;;;;;;;1.00;0.60;;;;;;;14.72;48.09;99219.84;25311;1318;3053054;-70
2022/10/04 12:22:36;;;;;;;0.90;0.80;;;;;;;14.56;46.91;99230.64;31814;1312;3026514;-72
2022/10/04 12:25:39;;;;;;;1.50;0.80;;;;;;;14.68;46.48;99236.17;25211;1315;3055072;-68
2022/10/04 12:28:29;;;;;;;1.70;0.90;;;;;;;14.78;46.73;99221.10;25225;1315;3052940;-72
2022/10/04 12:31:22;;;;;;;1.00;0.70;;;;;;;14.73;47.09;99233.28;25144;1315;3056613;-74